sensor_id;sensor_type;location;lat;lon;timestamp;P1;durP1;ratioP1;P2;durP2;ratioP2
69152;SDS011;56261;51.580;4.578;2022-08-27T00:01:29;9.88;;;2.30;;
69152;SDS011;56261;51.580;4.578;2022-08-27T00:03:55;9.33;;;2.70;;
69152;SDS011;56261;51.580;4.578;2022-08-27T00:06:21;6.53;;;2.40;;
69152;SDS011;56261;51.580;4.578;2022-08-27T00:08:48;5.90;;;2.50;;
69152;SDS011;56261;51.580;4.578;2022-08-27T00:11:14;10.80;;;2.80;;
69152;SDS011;56261;51.580;4.578;2022-08-27T00:13:41;7.90;;;2.90;;
69152;SDS011;56261;51.580;4.578;2022-08-27T00:16:09;6.65;;;2.55;;
69152;SDS011;56261;51.580;4.578;2022-08-27T00:18:37;12.25;;;2.80;;
69152;SDS011;56261;51.580;4.578;2022-08-27T00:21:04;8.73;;;2.90;;
69152;SDS011;56261;51.580;4.578;2022-08-27T00:23:29;9.65;;;3.00;;
69152;SDS011;56261;51.580;4.578;2022-08-27T00:25:56;7.90;;;3.03;;
69152;SDS011;56261;51.580;4.578;2022-08-27T00:28:22;9.27;;;2.80;;
69152;SDS011;56261;51.580;4.578;2022-08-27T00:30:48;8.82;;;2.45;;
69152;SDS011;56261;51.580;4.578;2022-08-27T00:33:14;9.87;;;3.30;;
69152;SDS011;56261;51.580;4.578;2022-08-27T00:35:39;8.48;;;2.70;;
69152;SDS011;56261;51.580;4.578;2022-08-27T00:38:05;9.07;;;2.80;;
69152;SDS011;56261;51.580;4.578;2022-08-27T00:40:32;9.80;;;3.75;;
69152;SDS011;56261;51.580;4.578;2022-08-27T00:42:57;8.80;;;3.00;;
69152;SDS011;56261;51.580;4.578;2022-08-27T00:45:26;9.13;;;2.58;;
69152;SDS011;56261;51.580;4.578;2022-08-27T00:47:53;7.27;;;3.13;;
69152;SDS011;56261;51.580;4.578;2022-08-27T00:50:35;8.40;;;3.30;;
69152;SDS011;56261;51.580;4.578;2022-08-27T00:53:10;8.88;;;3.28;;
69152;SDS011;56261;51.580;4.578;2022-08-27T00:55:40;9.65;;;3.78;;
69152;SDS011;56261;51.580;4.578;2022-08-27T00:58:11;8.27;;;3.60;;
69152;SDS011;56261;51.580;4.578;2022-08-27T01:00:41;12.48;;;4.22;;
69152;SDS011;56261;51.580;4.578;2022-08-27T01:03:08;9.90;;;3.70;;
69152;SDS011;56261;51.580;4.578;2022-08-27T01:05:34;9.38;;;4.30;;
69152;SDS011;56261;51.580;4.578;2022-08-27T01:08:10;10.90;;;4.13;;
69152;SDS011;56261;51.580;4.578;2022-08-27T01:10:38;10.90;;;4.15;;
69152;SDS011;56261;51.580;4.578;2022-08-27T01:13:06;9.40;;;4.88;;
69152;SDS011;56261;51.580;4.578;2022-08-27T01:15:33;11.02;;;4.78;;
69152;SDS011;56261;51.580;4.578;2022-08-27T01:17:59;8.83;;;4.50;;
69152;SDS011;56261;51.580;4.578;2022-08-27T01:20:29;9.90;;;4.27;;
69152;SDS011;56261;51.580;4.578;2022-08-27T01:23:06;10.25;;;4.15;;
69152;SDS011;56261;51.580;4.578;2022-08-27T01:25:40;10.85;;;4.22;;
69152;SDS011;56261;51.580;4.578;2022-08-27T01:28:07;11.68;;;4.20;;
69152;SDS011;56261;51.580;4.578;2022-08-27T01:30:33;8.93;;;3.80;;
69152;SDS011;56261;51.580;4.578;2022-08-27T01:33:00;11.47;;;3.57;;
69152;SDS011;56261;51.580;4.578;2022-08-27T01:35:32;8.75;;;4.03;;
69152;SDS011;56261;51.580;4.578;2022-08-27T01:37:58;10.03;;;4.43;;
69152;SDS011;56261;51.580;4.578;2022-08-27T01:40:23;11.82;;;4.32;;
69152;SDS011;56261;51.580;4.578;2022-08-27T01:42:50;11.17;;;4.70;;
69152;SDS011;56261;51.580;4.578;2022-08-27T01:45:19;10.63;;;4.35;;
69152;SDS011;56261;51.580;4.578;2022-08-27T01:47:48;12.68;;;4.93;;
69152;SDS011;56261;51.580;4.578;2022-08-27T01:50:16;9.70;;;4.20;;
69152;SDS011;56261;51.580;4.578;2022-08-27T01:52:44;10.20;;;4.43;;
69152;SDS011;56261;51.580;4.578;2022-08-27T01:55:11;10.23;;;3.80;;
69152;SDS011;56261;51.580;4.578;2022-08-27T01:57:40;11.70;;;4.40;;
69152;SDS011;56261;51.580;4.578;2022-08-27T02:00:09;11.75;;;4.90;;
69152;SDS011;56261;51.580;4.578;2022-08-27T02:02:37;10.88;;;4.40;;
69152;SDS011;56261;51.580;4.578;2022-08-27T02:05:03;9.23;;;4.63;;
69152;SDS011;56261;51.580;4.578;2022-08-27T02:07:29;12.27;;;4.03;;
69152;SDS011;56261;51.580;4.578;2022-08-27T02:09:54;11.60;;;4.07;;
69152;SDS011;56261;51.580;4.578;2022-08-27T02:12:20;11.40;;;4.28;;
69152;SDS011;56261;51.580;4.578;2022-08-27T02:14:45;9.43;;;4.37;;
69152;SDS011;56261;51.580;4.578;2022-08-27T02:17:11;10.57;;;4.10;;
69152;SDS011;56261;51.580;4.578;2022-08-27T02:19:36;9.23;;;4.13;;
69152;SDS011;56261;51.580;4.578;2022-08-27T02:22:02;12.00;;;4.63;;
69152;SDS011;56261;51.580;4.578;2022-08-27T02:24:28;10.07;;;4.40;;
69152;SDS011;56261;51.580;4.578;2022-08-27T02:26:54;11.00;;;4.50;;
69152;SDS011;56261;51.580;4.578;2022-08-27T02:29:20;9.30;;;4.63;;
69152;SDS011;56261;51.580;4.578;2022-08-27T02:31:46;10.80;;;4.80;;
69152;SDS011;56261;51.580;4.578;2022-08-27T02:34:11;10.37;;;4.43;;
69152;SDS011;56261;51.580;4.578;2022-08-27T02:36:37;10.95;;;4.57;;
69152;SDS011;56261;51.580;4.578;2022-08-27T02:39:04;11.00;;;4.30;;
69152;SDS011;56261;51.580;4.578;2022-08-27T02:41:30;9.88;;;4.28;;
69152;SDS011;56261;51.580;4.578;2022-08-27T02:43:55;12.73;;;4.93;;
69152;SDS011;56261;51.580;4.578;2022-08-27T02:46:21;10.63;;;4.07;;
69152;SDS011;56261;51.580;4.578;2022-08-27T02:48:46;14.00;;;5.13;;
69152;SDS011;56261;51.580;4.578;2022-08-27T02:51:12;10.60;;;4.50;;
69152;SDS011;56261;51.580;4.578;2022-08-27T02:53:37;10.33;;;5.00;;
69152;SDS011;56261;51.580;4.578;2022-08-27T02:56:03;9.90;;;4.00;;
69152;SDS011;56261;51.580;4.578;2022-08-27T02:58:29;10.93;;;4.78;;
69152;SDS011;56261;51.580;4.578;2022-08-27T03:00:55;11.03;;;4.30;;
69152;SDS011;56261;51.580;4.578;2022-08-27T03:03:21;9.50;;;3.87;;
69152;SDS011;56261;51.580;4.578;2022-08-27T03:05:46;10.83;;;4.33;;
69152;SDS011;56261;51.580;4.578;2022-08-27T03:08:12;9.25;;;3.65;;
69152;SDS011;56261;51.580;4.578;2022-08-27T03:10:37;9.77;;;3.70;;
69152;SDS011;56261;51.580;4.578;2022-08-27T03:13:04;8.43;;;3.97;;
69152;SDS011;56261;51.580;4.578;2022-08-27T03:15:29;11.07;;;4.07;;
69152;SDS011;56261;51.580;4.578;2022-08-27T03:17:55;10.32;;;3.97;;
69152;SDS011;56261;51.580;4.578;2022-08-27T03:20:39;9.47;;;3.73;;
69152;SDS011;56261;51.580;4.578;2022-08-27T03:23:09;8.70;;;3.88;;
69152;SDS011;56261;51.580;4.578;2022-08-27T03:25:36;10.25;;;4.05;;
69152;SDS011;56261;51.580;4.578;2022-08-27T03:28:02;10.00;;;4.55;;
69152;SDS011;56261;51.580;4.578;2022-08-27T03:30:28;10.95;;;4.20;;
69152;SDS011;56261;51.580;4.578;2022-08-27T03:32:53;11.63;;;4.00;;
69152;SDS011;56261;51.580;4.578;2022-08-27T03:35:19;8.07;;;4.10;;
69152;SDS011;56261;51.580;4.578;2022-08-27T03:37:45;12.45;;;3.70;;
69152;SDS011;56261;51.580;4.578;2022-08-27T03:40:11;7.82;;;3.40;;
69152;SDS011;56261;51.580;4.578;2022-08-27T03:42:38;11.60;;;4.37;;
69152;SDS011;56261;51.580;4.578;2022-08-27T03:45:05;9.18;;;3.28;;
69152;SDS011;56261;51.580;4.578;2022-08-27T03:47:32;8.98;;;4.22;;
69152;SDS011;56261;51.580;4.578;2022-08-27T03:49:58;8.80;;;3.10;;
69152;SDS011;56261;51.580;4.578;2022-08-27T03:52:24;9.20;;;3.05;;
69152;SDS011;56261;51.580;4.578;2022-08-27T03:54:50;8.37;;;3.67;;
69152;SDS011;56261;51.580;4.578;2022-08-27T03:57:16;11.17;;;4.03;;
69152;SDS011;56261;51.580;4.578;2022-08-27T03:59:41;9.43;;;3.40;;
69152;SDS011;56261;51.580;4.578;2022-08-27T04:02:06;9.03;;;3.50;;
69152;SDS011;56261;51.580;4.578;2022-08-27T04:04:32;10.67;;;3.93;;
69152;SDS011;56261;51.580;4.578;2022-08-27T04:06:57;12.00;;;4.37;;
69152;SDS011;56261;51.580;4.578;2022-08-27T04:09:23;9.67;;;3.70;;
69152;SDS011;56261;51.580;4.578;2022-08-27T04:11:48;9.50;;;3.60;;
69152;SDS011;56261;51.580;4.578;2022-08-27T04:14:14;9.50;;;3.80;;
69152;SDS011;56261;51.580;4.578;2022-08-27T04:16:39;10.07;;;3.55;;
69152;SDS011;56261;51.580;4.578;2022-08-27T04:19:06;8.03;;;4.00;;
69152;SDS011;56261;51.580;4.578;2022-08-27T04:21:32;11.48;;;4.03;;
69152;SDS011;56261;51.580;4.578;2022-08-27T04:23:59;8.38;;;3.40;;
69152;SDS011;56261;51.580;4.578;2022-08-27T04:26:25;10.90;;;4.10;;
69152;SDS011;56261;51.580;4.578;2022-08-27T04:28:50;12.00;;;4.10;;
69152;SDS011;56261;51.580;4.578;2022-08-27T04:31:16;10.57;;;4.30;;
69152;SDS011;56261;51.580;4.578;2022-08-27T04:33:43;13.93;;;5.20;;
69152;SDS011;56261;51.580;4.578;2022-08-27T04:36:09;10.27;;;4.45;;
69152;SDS011;56261;51.580;4.578;2022-08-27T04:38:35;11.97;;;4.57;;
69152;SDS011;56261;51.580;4.578;2022-08-27T04:41:02;11.05;;;4.95;;
69152;SDS011;56261;51.580;4.578;2022-08-27T04:43:43;11.05;;;5.50;;
69152;SDS011;56261;51.580;4.578;2022-08-27T04:46:10;11.25;;;5.35;;
69152;SDS011;56261;51.580;4.578;2022-08-27T04:48:35;11.73;;;5.40;;
69152;SDS011;56261;51.580;4.578;2022-08-27T04:51:01;12.57;;;5.82;;
69152;SDS011;56261;51.580;4.578;2022-08-27T04:53:26;10.23;;;5.80;;
69152;SDS011;56261;51.580;4.578;2022-08-27T04:55:53;9.73;;;5.22;;
69152;SDS011;56261;51.580;4.578;2022-08-27T04:58:20;13.87;;;6.50;;
69152;SDS011;56261;51.580;4.578;2022-08-27T05:00:48;13.73;;;6.53;;
69152;SDS011;56261;51.580;4.578;2022-08-27T05:03:16;11.95;;;6.57;;
69152;SDS011;56261;51.580;4.578;2022-08-27T05:05:44;12.48;;;6.30;;
69152;SDS011;56261;51.580;4.578;2022-08-27T05:08:11;13.43;;;6.43;;
69152;SDS011;56261;51.580;4.578;2022-08-27T05:10:44;13.03;;;6.30;;
69152;SDS011;56261;51.580;4.578;2022-08-27T05:13:11;12.80;;;6.47;;
69152;SDS011;56261;51.580;4.578;2022-08-27T05:15:37;13.27;;;6.85;;
69152;SDS011;56261;51.580;4.578;2022-08-27T05:18:04;11.85;;;6.55;;
69152;SDS011;56261;51.580;4.578;2022-08-27T05:20:31;16.57;;;7.90;;
69152;SDS011;56261;51.580;4.578;2022-08-27T05:22:56;11.43;;;6.50;;
69152;SDS011;56261;51.580;4.578;2022-08-27T05:25:22;9.87;;;6.10;;
69152;SDS011;56261;51.580;4.578;2022-08-27T05:27:49;12.73;;;6.82;;
69152;SDS011;56261;51.580;4.578;2022-08-27T05:30:14;12.77;;;6.60;;
69152;SDS011;56261;51.580;4.578;2022-08-27T05:32:40;14.40;;;7.68;;
69152;SDS011;56261;51.580;4.578;2022-08-27T05:35:07;12.57;;;7.17;;
69152;SDS011;56261;51.580;4.578;2022-08-27T05:37:33;13.85;;;7.20;;
69152;SDS011;56261;51.580;4.578;2022-08-27T05:40:00;14.02;;;7.28;;
69152;SDS011;56261;51.580;4.578;2022-08-27T05:42:28;13.45;;;7.50;;
69152;SDS011;56261;51.580;4.578;2022-08-27T05:44:55;13.52;;;7.35;;
69152;SDS011;56261;51.580;4.578;2022-08-27T05:47:20;15.10;;;7.60;;
69152;SDS011;56261;51.580;4.578;2022-08-27T05:49:46;15.02;;;7.95;;
69152;SDS011;56261;51.580;4.578;2022-08-27T05:52:12;13.43;;;7.40;;
69152;SDS011;56261;51.580;4.578;2022-08-27T05:54:38;12.27;;;6.53;;
69152;SDS011;56261;51.580;4.578;2022-08-27T05:57:03;12.18;;;6.90;;
69152;SDS011;56261;51.580;4.578;2022-08-27T05:59:30;13.95;;;6.95;;
69152;SDS011;56261;51.580;4.578;2022-08-27T06:02:14;15.05;;;6.40;;
69152;SDS011;56261;51.580;4.578;2022-08-27T06:04:39;11.60;;;5.80;;
69152;SDS011;56261;51.580;4.578;2022-08-27T06:07:06;10.40;;;5.17;;
69152;SDS011;56261;51.580;4.578;2022-08-27T06:09:33;11.60;;;5.05;;
69152;SDS011;56261;51.580;4.578;2022-08-27T06:11:59;13.68;;;5.25;;
69152;SDS011;56261;51.580;4.578;2022-08-27T06:14:25;11.63;;;5.30;;
69152;SDS011;56261;51.580;4.578;2022-08-27T06:16:51;17.60;;;5.77;;
69152;SDS011;56261;51.580;4.578;2022-08-27T06:19:17;15.10;;;5.50;;
69152;SDS011;56261;51.580;4.578;2022-08-27T06:21:43;9.77;;;4.07;;
69152;SDS011;56261;51.580;4.578;2022-08-27T06:24:09;10.13;;;4.30;;
69152;SDS011;56261;51.580;4.578;2022-08-27T06:26:37;11.55;;;3.92;;
69152;SDS011;56261;51.580;4.578;2022-08-27T06:29:04;11.87;;;3.93;;
69152;SDS011;56261;51.580;4.578;2022-08-27T06:31:31;9.07;;;4.10;;
69152;SDS011;56261;51.580;4.578;2022-08-27T06:34:00;10.68;;;4.30;;
69152;SDS011;56261;51.580;4.578;2022-08-27T06:36:27;13.48;;;3.72;;
69152;SDS011;56261;51.580;4.578;2022-08-27T06:38:53;9.40;;;4.15;;
69152;SDS011;56261;51.580;4.578;2022-08-27T06:41:21;8.63;;;4.10;;
69152;SDS011;56261;51.580;4.578;2022-08-27T06:43:48;12.13;;;4.05;;
69152;SDS011;56261;51.580;4.578;2022-08-27T06:46:15;10.60;;;4.00;;
69152;SDS011;56261;51.580;4.578;2022-08-27T06:48:42;10.20;;;3.25;;
69152;SDS011;56261;51.580;4.578;2022-08-27T06:51:13;8.00;;;3.10;;
69152;SDS011;56261;51.580;4.578;2022-08-27T06:53:42;8.00;;;3.00;;
69152;SDS011;56261;51.580;4.578;2022-08-27T06:56:09;8.48;;;2.65;;
69152;SDS011;56261;51.580;4.578;2022-08-27T06:58:35;9.85;;;2.90;;
69152;SDS011;56261;51.580;4.578;2022-08-27T07:01:09;9.50;;;2.90;;
69152;SDS011;56261;51.580;4.578;2022-08-27T07:03:40;10.55;;;2.80;;
69152;SDS011;56261;51.580;4.578;2022-08-27T07:06:07;8.45;;;2.80;;
69152;SDS011;56261;51.580;4.578;2022-08-27T07:08:34;8.10;;;2.80;;
69152;SDS011;56261;51.580;4.578;2022-08-27T07:11:00;7.97;;;2.70;;
69152;SDS011;56261;51.580;4.578;2022-08-27T07:13:26;8.33;;;2.57;;
69152;SDS011;56261;51.580;4.578;2022-08-27T07:15:52;10.30;;;2.83;;
69152;SDS011;56261;51.580;4.578;2022-08-27T07:18:18;10.30;;;2.10;;
69152;SDS011;56261;51.580;4.578;2022-08-27T07:20:43;7.37;;;2.00;;
69152;SDS011;56261;51.580;4.578;2022-08-27T07:23:09;7.53;;;2.57;;
69152;SDS011;56261;51.580;4.578;2022-08-27T07:25:34;8.70;;;2.80;;
69152;SDS011;56261;51.580;4.578;2022-08-27T07:28:00;9.60;;;2.65;;
69152;SDS011;56261;51.580;4.578;2022-08-27T07:30:26;8.13;;;2.30;;
69152;SDS011;56261;51.580;4.578;2022-08-27T07:32:52;9.82;;;2.50;;
69152;SDS011;56261;51.580;4.578;2022-08-27T07:35:18;10.18;;;2.65;;
69152;SDS011;56261;51.580;4.578;2022-08-27T07:37:43;6.27;;;2.40;;
69152;SDS011;56261;51.580;4.578;2022-08-27T07:40:10;9.43;;;2.33;;
69152;SDS011;56261;51.580;4.578;2022-08-27T07:42:38;13.90;;;2.38;;
69152;SDS011;56261;51.580;4.578;2022-08-27T07:45:23;8.77;;;2.40;;
69152;SDS011;56261;51.580;4.578;2022-08-27T07:47:48;8.37;;;2.30;;
69152;SDS011;56261;51.580;4.578;2022-08-27T07:50:14;10.70;;;2.20;;
69152;SDS011;56261;51.580;4.578;2022-08-27T07:52:39;7.60;;;2.08;;
69152;SDS011;56261;51.580;4.578;2022-08-27T07:55:06;5.88;;;1.67;;
69152;SDS011;56261;51.580;4.578;2022-08-27T07:57:32;9.03;;;2.47;;
69152;SDS011;56261;51.580;4.578;2022-08-27T07:59:57;8.27;;;2.30;;
69152;SDS011;56261;51.580;4.578;2022-08-27T08:02:23;7.47;;;2.28;;
69152;SDS011;56261;51.580;4.578;2022-08-27T08:04:48;6.90;;;2.40;;
69152;SDS011;56261;51.580;4.578;2022-08-27T08:07:15;7.00;;;2.50;;
69152;SDS011;56261;51.580;4.578;2022-08-27T08:09:41;8.93;;;2.37;;
69152;SDS011;56261;51.580;4.578;2022-08-27T08:12:06;9.02;;;2.65;;
69152;SDS011;56261;51.580;4.578;2022-08-27T08:14:32;6.83;;;2.30;;
69152;SDS011;56261;51.580;4.578;2022-08-27T08:16:58;8.97;;;2.33;;
69152;SDS011;56261;51.580;4.578;2022-08-27T08:19:27;11.55;;;2.97;;
69152;SDS011;56261;51.580;4.578;2022-08-27T08:21:54;10.18;;;2.40;;
69152;SDS011;56261;51.580;4.578;2022-08-27T08:24:19;7.47;;;2.50;;
69152;SDS011;56261;51.580;4.578;2022-08-27T08:26:45;10.63;;;2.50;;
69152;SDS011;56261;51.580;4.578;2022-08-27T08:29:11;6.38;;;2.20;;
69152;SDS011;56261;51.580;4.578;2022-08-27T08:31:39;8.07;;;2.80;;
69152;SDS011;56261;51.580;4.578;2022-08-27T08:34:05;9.77;;;2.60;;
69152;SDS011;56261;51.580;4.578;2022-08-27T08:36:31;9.82;;;3.28;;
69152;SDS011;56261;51.580;4.578;2022-08-27T08:38:56;8.83;;;2.73;;
69152;SDS011;56261;51.580;4.578;2022-08-27T08:46:58;8.93;;;2.30;;
69152;SDS011;56261;51.580;4.578;2022-08-27T08:54:50;13.15;;;3.00;;
69152;SDS011;56261;51.580;4.578;2022-08-27T08:57:29;10.95;;;2.88;;
69152;SDS011;56261;51.580;4.578;2022-08-27T09:00:07;9.23;;;3.03;;
69152;SDS011;56261;51.580;4.578;2022-08-27T09:02:36;8.95;;;2.92;;
69152;SDS011;56261;51.580;4.578;2022-08-27T09:05:04;10.27;;;3.10;;
69152;SDS011;56261;51.580;4.578;2022-08-27T09:10:33;9.02;;;2.83;;
69152;SDS011;56261;51.580;4.578;2022-08-27T09:13:06;9.27;;;2.70;;
69152;SDS011;56261;51.580;4.578;2022-08-27T09:15:45;8.10;;;2.78;;
69152;SDS011;56261;51.580;4.578;2022-08-27T09:18:12;9.63;;;2.87;;
69152;SDS011;56261;51.580;4.578;2022-08-27T09:20:39;9.93;;;2.67;;
69152;SDS011;56261;51.580;4.578;2022-08-27T09:25:38;10.17;;;3.10;;
69152;SDS011;56261;51.580;4.578;2022-08-27T09:28:06;7.82;;;3.00;;
69152;SDS011;56261;51.580;4.578;2022-08-27T09:31:13;9.48;;;3.15;;
69152;SDS011;56261;51.580;4.578;2022-08-27T09:33:40;7.78;;;3.08;;
69152;SDS011;56261;51.580;4.578;2022-08-27T09:36:07;8.73;;;3.40;;
69152;SDS011;56261;51.580;4.578;2022-08-27T09:38:35;9.57;;;2.97;;
69152;SDS011;56261;51.580;4.578;2022-08-27T09:41:08;8.73;;;2.75;;
69152;SDS011;56261;51.580;4.578;2022-08-27T09:43:42;7.35;;;2.40;;
69152;SDS011;56261;51.580;4.578;2022-08-27T09:46:20;7.90;;;2.97;;
69152;SDS011;56261;51.580;4.578;2022-08-27T09:48:46;6.75;;;2.90;;
69152;SDS011;56261;51.580;4.578;2022-08-27T09:51:13;8.43;;;2.77;;
69152;SDS011;56261;51.580;4.578;2022-08-27T09:53:57;7.47;;;2.70;;
69152;SDS011;56261;51.580;4.578;2022-08-27T09:56:29;8.03;;;2.47;;
69152;SDS011;56261;51.580;4.578;2022-08-27T09:59:07;6.72;;;2.75;;
69152;SDS011;56261;51.580;4.578;2022-08-27T10:01:36;7.75;;;2.75;;
69152;SDS011;56261;51.580;4.578;2022-08-27T10:04:38;8.00;;;3.20;;
69152;SDS011;56261;51.580;4.578;2022-08-27T10:10:06;6.03;;;2.40;;
69152;SDS011;56261;51.580;4.578;2022-08-27T10:15:23;6.10;;;2.42;;
69152;SDS011;56261;51.580;4.578;2022-08-27T10:23:26;5.97;;;2.30;;
69152;SDS011;56261;51.580;4.578;2022-08-27T10:26:29;6.45;;;2.25;;
69152;SDS011;56261;51.580;4.578;2022-08-27T10:37:05;10.43;;;2.70;;
69152;SDS011;56261;51.580;4.578;2022-08-27T10:50:07;9.07;;;2.60;;
69152;SDS011;56261;51.580;4.578;2022-08-27T10:52:45;7.60;;;2.55;;
69152;SDS011;56261;51.580;4.578;2022-08-27T10:55:21;6.50;;;2.55;;
69152;SDS011;56261;51.580;4.578;2022-08-27T11:01:18;9.57;;;2.90;;
69152;SDS011;56261;51.580;4.578;2022-08-27T11:11:46;5.88;;;2.30;;
69152;SDS011;56261;51.580;4.578;2022-08-27T11:14:36;5.63;;;2.42;;
69152;SDS011;56261;51.580;4.578;2022-08-27T11:17:08;9.37;;;2.60;;
69152;SDS011;56261;51.580;4.578;2022-08-27T11:22:36;8.95;;;3.03;;
69152;SDS011;56261;51.580;4.578;2022-08-27T11:27:55;7.18;;;3.00;;
69152;SDS011;56261;51.580;4.578;2022-08-27T11:36:26;9.40;;;2.60;;
69152;SDS011;56261;51.580;4.578;2022-08-27T11:39:09;5.53;;;2.25;;
69152;SDS011;56261;51.580;4.578;2022-08-27T11:44:23;8.07;;;2.67;;
69152;SDS011;56261;51.580;4.578;2022-08-27T11:46:52;7.15;;;2.38;;
69152;SDS011;56261;51.580;4.578;2022-08-27T11:49:32;7.68;;;2.28;;
69152;SDS011;56261;51.580;4.578;2022-08-27T11:52:06;6.28;;;2.17;;
69152;SDS011;56261;51.580;4.578;2022-08-27T11:54:44;7.93;;;2.10;;
69152;SDS011;56261;51.580;4.578;2022-08-27T11:57:13;6.93;;;1.90;;
69152;SDS011;56261;51.580;4.578;2022-08-27T11:59:40;7.93;;;2.10;;
69152;SDS011;56261;51.580;4.578;2022-08-27T12:04:46;6.47;;;2.00;;
69152;SDS011;56261;51.580;4.578;2022-08-27T12:12:37;7.43;;;2.15;;
69152;SDS011;56261;51.580;4.578;2022-08-27T12:20:44;7.80;;;2.38;;
69152;SDS011;56261;51.580;4.578;2022-08-27T12:29:40;5.37;;;2.00;;
69152;SDS011;56261;51.580;4.578;2022-08-27T12:32:39;6.95;;;2.08;;
69152;SDS011;56261;51.580;4.578;2022-08-27T12:34:58;6.97;;;2.08;;
69152;SDS011;56261;51.580;4.578;2022-08-27T12:37:29;5.75;;;2.05;;
69152;SDS011;56261;51.580;4.578;2022-08-27T12:39:59;7.22;;;2.00;;
69152;SDS011;56261;51.580;4.578;2022-08-27T12:42:30;9.40;;;2.03;;
69152;SDS011;56261;51.580;4.578;2022-08-27T12:44:56;8.70;;;2.15;;
69152;SDS011;56261;51.580;4.578;2022-08-27T12:47:23;8.02;;;2.10;;
69152;SDS011;56261;51.580;4.578;2022-08-27T12:49:57;6.10;;;1.77;;
69152;SDS011;56261;51.580;4.578;2022-08-27T12:58:12;7.50;;;1.60;;
69152;SDS011;56261;51.580;4.578;2022-08-27T13:03:37;5.53;;;1.97;;
69152;SDS011;56261;51.580;4.578;2022-08-27T13:06:18;5.35;;;1.65;;
69152;SDS011;56261;51.580;4.578;2022-08-27T13:08:43;4.97;;;1.42;;
69152;SDS011;56261;51.580;4.578;2022-08-27T13:11:13;5.73;;;1.77;;
69152;SDS011;56261;51.580;4.578;2022-08-27T13:13:43;7.40;;;1.63;;
69152;SDS011;56261;51.580;4.578;2022-08-27T13:16:09;6.20;;;1.77;;
69152;SDS011;56261;51.580;4.578;2022-08-27T13:18:36;6.00;;;1.65;;
69152;SDS011;56261;51.580;4.578;2022-08-27T13:21:13;8.55;;;2.20;;
69152;SDS011;56261;51.580;4.578;2022-08-27T13:23:59;7.30;;;1.60;;
69152;SDS011;56261;51.580;4.578;2022-08-27T13:26:27;7.90;;;1.65;;
69152;SDS011;56261;51.580;4.578;2022-08-27T13:28:58;6.97;;;2.03;;
69152;SDS011;56261;51.580;4.578;2022-08-27T13:31:24;11.02;;;1.67;;
69152;SDS011;56261;51.580;4.578;2022-08-27T13:33:52;7.07;;;1.90;;
69152;SDS011;56261;51.580;4.578;2022-08-27T13:36:29;5.83;;;1.60;;
69152;SDS011;56261;51.580;4.578;2022-08-27T13:38:57;6.95;;;1.70;;
69152;SDS011;56261;51.580;4.578;2022-08-27T13:44:12;7.32;;;1.85;;
69152;SDS011;56261;51.580;4.578;2022-08-27T13:46:51;7.63;;;1.90;;
69152;SDS011;56261;51.580;4.578;2022-08-27T13:49:25;7.63;;;1.87;;
69152;SDS011;56261;51.580;4.578;2022-08-27T13:52:15;6.47;;;1.75;;
69152;SDS011;56261;51.580;4.578;2022-08-27T13:54:46;7.05;;;1.60;;
69152;SDS011;56261;51.580;4.578;2022-08-27T13:57:25;6.30;;;1.63;;
69152;SDS011;56261;51.580;4.578;2022-08-27T14:02:49;6.73;;;1.90;;
69152;SDS011;56261;51.580;4.578;2022-08-27T14:08:11;6.72;;;2.08;;
69152;SDS011;56261;51.580;4.578;2022-08-27T14:10:43;7.87;;;1.73;;
69152;SDS011;56261;51.580;4.578;2022-08-27T14:13:22;4.45;;;1.58;;
69152;SDS011;56261;51.580;4.578;2022-08-27T14:18:23;6.65;;;1.67;;
69152;SDS011;56261;51.580;4.578;2022-08-27T14:20:57;5.90;;;1.63;;
69152;SDS011;56261;51.580;4.578;2022-08-27T14:23:23;7.83;;;2.17;;
69152;SDS011;56261;51.580;4.578;2022-08-27T14:25:50;7.45;;;2.10;;
69152;SDS011;56261;51.580;4.578;2022-08-27T14:28:17;6.60;;;1.80;;
69152;SDS011;56261;51.580;4.578;2022-08-27T14:30:43;6.07;;;1.80;;
69152;SDS011;56261;51.580;4.578;2022-08-27T14:33:08;7.18;;;1.50;;
69152;SDS011;56261;51.580;4.578;2022-08-27T14:35:36;7.27;;;1.60;;
69152;SDS011;56261;51.580;4.578;2022-08-27T14:38:11;6.80;;;1.60;;
69152;SDS011;56261;51.580;4.578;2022-08-27T14:40:39;7.38;;;1.65;;
69152;SDS011;56261;51.580;4.578;2022-08-27T14:43:10;7.03;;;1.55;;
69152;SDS011;56261;51.580;4.578;2022-08-27T14:45:40;5.57;;;1.40;;
69152;SDS011;56261;51.580;4.578;2022-08-27T14:48:09;6.33;;;1.40;;
69152;SDS011;56261;51.580;4.578;2022-08-27T14:50:38;8.23;;;1.60;;
69152;SDS011;56261;51.580;4.578;2022-08-27T14:53:03;6.25;;;1.67;;
69152;SDS011;56261;51.580;4.578;2022-08-27T14:55:29;5.78;;;1.80;;
69152;SDS011;56261;51.580;4.578;2022-08-27T14:57:56;6.33;;;1.80;;
69152;SDS011;56261;51.580;4.578;2022-08-27T15:00:22;7.07;;;1.60;;
69152;SDS011;56261;51.580;4.578;2022-08-27T15:02:47;5.77;;;1.67;;
69152;SDS011;56261;51.580;4.578;2022-08-27T15:05:13;7.00;;;1.90;;
69152;SDS011;56261;51.580;4.578;2022-08-27T15:07:40;5.63;;;1.53;;
69152;SDS011;56261;51.580;4.578;2022-08-27T15:10:05;5.87;;;1.80;;
69152;SDS011;56261;51.580;4.578;2022-08-27T15:12:31;5.40;;;1.77;;
69152;SDS011;56261;51.580;4.578;2022-08-27T15:14:57;8.20;;;1.77;;
69152;SDS011;56261;51.580;4.578;2022-08-27T15:17:22;4.47;;;1.50;;
69152;SDS011;56261;51.580;4.578;2022-08-27T15:19:48;6.73;;;1.87;;
69152;SDS011;56261;51.580;4.578;2022-08-27T15:22:18;8.30;;;1.75;;
69152;SDS011;56261;51.580;4.578;2022-08-27T15:24:52;6.53;;;1.73;;
69152;SDS011;56261;51.580;4.578;2022-08-27T15:27:20;8.00;;;1.58;;
69152;SDS011;56261;51.580;4.578;2022-08-27T15:29:46;9.50;;;1.98;;
69152;SDS011;56261;51.580;4.578;2022-08-27T15:32:26;4.90;;;1.50;;
69152;SDS011;56261;51.580;4.578;2022-08-27T15:34:58;5.47;;;1.60;;
69152;SDS011;56261;51.580;4.578;2022-08-27T15:37:25;7.53;;;1.75;;
69152;SDS011;56261;51.580;4.578;2022-08-27T15:39:51;8.73;;;2.15;;
69152;SDS011;56261;51.580;4.578;2022-08-27T15:42:18;7.00;;;1.60;;
69152;SDS011;56261;51.580;4.578;2022-08-27T15:44:45;7.63;;;2.10;;
69152;SDS011;56261;51.580;4.578;2022-08-27T15:47:13;5.97;;;1.77;;
69152;SDS011;56261;51.580;4.578;2022-08-27T15:49:39;6.07;;;1.60;;
69152;SDS011;56261;51.580;4.578;2022-08-27T15:52:08;6.53;;;1.90;;
69152;SDS011;56261;51.580;4.578;2022-08-27T15:54:36;6.43;;;1.73;;
69152;SDS011;56261;51.580;4.578;2022-08-27T15:57:02;6.38;;;1.50;;
69152;SDS011;56261;51.580;4.578;2022-08-27T15:59:31;7.47;;;1.80;;
69152;SDS011;56261;51.580;4.578;2022-08-27T16:01:58;5.60;;;1.65;;
69152;SDS011;56261;51.580;4.578;2022-08-27T16:04:24;4.50;;;1.50;;
69152;SDS011;56261;51.580;4.578;2022-08-27T16:06:50;5.90;;;1.70;;
69152;SDS011;56261;51.580;4.578;2022-08-27T16:09:16;7.97;;;1.88;;
69152;SDS011;56261;51.580;4.578;2022-08-27T16:11:42;6.67;;;1.60;;
69152;SDS011;56261;51.580;4.578;2022-08-27T16:14:09;7.88;;;1.52;;
69152;SDS011;56261;51.580;4.578;2022-08-27T16:16:39;7.13;;;1.70;;
69152;SDS011;56261;51.580;4.578;2022-08-27T16:19:04;6.87;;;1.97;;
69152;SDS011;56261;51.580;4.578;2022-08-27T16:21:31;6.85;;;1.48;;
69152;SDS011;56261;51.580;4.578;2022-08-27T16:24:02;7.72;;;1.90;;
69152;SDS011;56261;51.580;4.578;2022-08-27T16:26:28;5.87;;;1.43;;
69152;SDS011;56261;51.580;4.578;2022-08-27T16:28:54;8.50;;;1.50;;
69152;SDS011;56261;51.580;4.578;2022-08-27T16:31:19;10.27;;;2.30;;
69152;SDS011;56261;51.580;4.578;2022-08-27T16:33:46;8.35;;;1.98;;
69152;SDS011;56261;51.580;4.578;2022-08-27T16:36:11;8.20;;;1.75;;
69152;SDS011;56261;51.580;4.578;2022-08-27T16:38:37;5.43;;;1.57;;
69152;SDS011;56261;51.580;4.578;2022-08-27T16:41:03;4.87;;;1.40;;
69152;SDS011;56261;51.580;4.578;2022-08-27T16:43:29;6.47;;;1.80;;